Time;durP1;ratioP1;P1;durP2;ratioP2;P2;SDS_P1;SDS_P2;PMS_P1;PMS_P2;Temp;Humidity;BMP_temperature;BMP_pressure;BME280_temperature;BME280_humidity;BME280_pressure;Samples;Min_cycle;Max_cycle;Signal;HPM_P1;HPM_P2
2021/10/26 00:02:13;;;;;;;10.93;7.38;;;;;;;;;;4999404;28;20022;-84
2021/10/26 00:04:39;;;;;;;15.00;8.93;;;;;;;;;;4998805;28;20034;-82
2021/10/26 00:07:05;;;;;;;10.15;7.15;;;;;;;;;;5000864;28;20105;-81
2021/10/26 00:09:31;;;;;;;13.93;8.10;;;;;;;;;;5008475;28;20033;-81
2021/10/26 00:11:58;;;;;;;19.48;7.45;;;;;;;;;;4986382;28;20403;-83
2021/10/26 00:14:24;;;;;;;12.48;7.80;;;;;;;;;;4998966;28;20026;-83
2021/10/26 00:16:50;;;;;;;12.63;7.38;;;;;;;;;;4997762;28;20034;-82
2021/10/26 00:19:16;;;;;;;11.10;7.28;;;;;;;;;;4999055;28;20030;-83
2021/10/26 00:21:43;;;;;;;11.98;7.95;;;;;;;;;;4998084;28;20592;-82
2021/10/26 00:24:09;;;;;;;12.80;7.78;;;;;;;;;;4996268;28;20026;-83
2021/10/26 00:26:35;;;;;;;11.05;7.43;;;;;;;;;;4981423;28;20065;-82
2021/10/26 00:29:02;;;;;;;10.02;7.53;;;;;;;;;;4998644;28;20057;-82
2021/10/26 00:31:29;;;;;;;11.45;7.70;;;;;;;;;;4997865;28;20033;-82
2021/10/26 00:33:55;;;;;;;11.23;6.65;;;;;;;;;;4996460;28;20029;-83
2021/10/26 00:36:21;;;;;;;12.45;7.32;;;;;;;;;;4997800;28;20032;-83
2021/10/26 00:38:47;;;;;;;9.63;7.13;;;;;;;;;;5004137;28;20061;-83
2021/10/26 00:41:13;;;;;;;11.88;7.43;;;;;;;;;;5008198;28;20040;-82
2021/10/26 00:43:39;;;;;;;12.15;7.72;;;;;;;;;;5009576;28;20141;-83
2021/10/26 00:46:05;;;;;;;12.40;7.55;;;;;;;;;;5008845;28;20038;-83
2021/10/26 00:48:31;;;;;;;14.15;7.93;;;;;;;;;;5008557;28;20291;-82
2021/10/26 00:50:57;;;;;;;11.88;7.68;;;;;;;;;;5008582;28;20035;-82
2021/10/26 00:53:23;;;;;;;14.48;7.53;;;;;;;;;;5006960;28;20194;-82
2021/10/26 00:55:50;;;;;;;10.13;7.10;;;;;;;;;;5008963;28;20030;-83
2021/10/26 00:58:17;;;;;;;12.52;7.38;;;;;;;;;;5009831;28;20133;-82
2021/10/26 01:00:44;;;;;;;9.32;6.68;;;;;;;;;;5010460;28;20030;-82
2021/10/26 01:03:12;;;;;;;11.23;7.30;;;;;;;;;;5008549;28;20061;-82
2021/10/26 01:05:38;;;;;;;11.77;7.35;;;;;;;;;;5007627;28;20034;-80
2021/10/26 01:08:04;;;;;;;14.52;7.57;;;;;;;;;;5010405;28;20121;-80
2021/10/26 01:10:30;;;;;;;8.95;7.13;;;;;;;;;;5001691;28;20107;-80
2021/10/26 01:12:56;;;;;;;11.63;7.43;;;;;;;;;;4995503;28;20117;-80
2021/10/26 01:15:22;;;;;;;10.65;6.88;;;;;;;;;;4996179;28;20018;-80
2021/10/26 01:17:49;;;;;;;8.68;6.97;;;;;;;;;;4995676;28;20069;-80
2021/10/26 01:20:15;;;;;;;9.77;7.03;;;;;;;;;;4994564;28;20124;-80
2021/10/26 01:22:41;;;;;;;10.48;6.93;;;;;;;;;;4993039;28;20332;-80
2021/10/26 01:25:11;;;;;;;9.25;6.78;;;;;;;;;;4995620;28;20027;-80
2021/10/26 01:27:41;;;;;;;9.13;6.70;;;;;;;;;;4995421;28;20034;-80
2021/10/26 01:30:08;;;;;;;12.80;7.00;;;;;;;;;;4977181;28;20037;-80
2021/10/26 01:32:34;;;;;;;10.88;7.18;;;;;;;;;;4994998;28;20022;-80
2021/10/26 01:35:00;;;;;;;11.75;7.30;;;;;;;;;;4977465;28;20038;-80
2021/10/26 01:37:26;;;;;;;10.40;7.03;;;;;;;;;;4995785;28;20038;-80
2021/10/26 01:39:52;;;;;;;15.68;7.15;;;;;;;;;;4993294;28;20038;-80
2021/10/26 01:42:20;;;;;;;11.35;7.00;;;;;;;;;;4996398;28;20034;-80
2021/10/26 01:44:47;;;;;;;14.18;7.00;;;;;;;;;;4993229;28;20060;-80
2021/10/26 01:47:13;;;;;;;13.98;7.25;;;;;;;;;;4995231;28;20370;-80
2021/10/26 01:49:39;;;;;;;10.80;7.20;;;;;;;;;;4997191;28;20030;-82
2021/10/26 01:52:05;;;;;;;12.55;7.75;;;;;;;;;;4997520;28;20027;-80
2021/10/26 01:54:36;;;;;;;11.52;7.30;;;;;;;;;;4996363;28;20364;-81
2021/10/26 01:57:04;;;;;;;10.30;7.43;;;;;;;;;;4998072;28;20032;-82
2021/10/26 01:59:30;;;;;;;14.07;8.35;;;;;;;;;;4994796;28;20050;-81
2021/10/26 02:01:56;;;;;;;13.30;7.68;;;;;;;;;;4995973;28;20510;-82
2021/10/26 02:04:22;;;;;;;10.05;7.38;;;;;;;;;;4995941;28;20030;-82
2021/10/26 02:06:49;;;;;;;13.93;7.50;;;;;;;;;;4995958;28;20026;-83
2021/10/26 02:09:15;;;;;;;12.57;8.00;;;;;;;;;;4994626;28;20026;-83
2021/10/26 02:11:41;;;;;;;12.98;8.07;;;;;;;;;;4996006;28;20488;-83
2021/10/26 02:14:07;;;;;;;13.63;8.73;;;;;;;;;;4996925;28;20022;-83
2021/10/26 02:16:33;;;;;;;10.68;7.32;;;;;;;;;;4995577;28;20121;-83
2021/10/26 02:18:59;;;;;;;13.32;7.85;;;;;;;;;;4996078;28;20019;-83
2021/10/26 02:21:25;;;;;;;11.07;7.60;;;;;;;;;;5013893;28;20041;-81
2021/10/26 02:23:51;;;;;;;12.65;7.85;;;;;;;;;;5014848;28;20022;-80
2021/10/26 02:26:17;;;;;;;13.57;7.95;;;;;;;;;;5006694;28;20053;-83
2021/10/26 02:28:44;;;;;;;12.48;7.82;;;;;;;;;;4996633;28;20515;-83
2021/10/26 02:31:10;;;;;;;13.82;8.13;;;;;;;;;;4995188;28;20104;-83
2021/10/26 02:33:37;;;;;;;16.13;8.82;;;;;;;;;;4996551;28;20126;-82
2021/10/26 02:36:04;;;;;;;12.95;8.60;;;;;;;;;;5000059;28;20038;-82
2021/10/26 02:38:30;;;;;;;13.85;8.43;;;;;;;;;;4999684;28;20475;-83
2021/10/26 02:40:57;;;;;;;13.27;8.50;;;;;;;;;;5000022;28;20030;-83
2021/10/26 02:43:23;;;;;;;12.25;7.82;;;;;;;;;;4998853;28;20037;-83
2021/10/26 02:45:49;;;;;;;12.23;7.55;;;;;;;;;;4999713;28;20034;-83
2021/10/26 02:48:15;;;;;;;11.27;7.88;;;;;;;;;;4999951;28;20018;-83
2021/10/26 02:50:41;;;;;;;10.93;8.30;;;;;;;;;;4999572;28;20058;-81
2021/10/26 02:53:07;;;;;;;12.00;7.93;;;;;;;;;;4999780;28;20027;-83
2021/10/26 02:55:33;;;;;;;12.43;7.70;;;;;;;;;;5000307;28;20035;-83
2021/10/26 02:57:59;;;;;;;11.80;8.20;;;;;;;;;;4998818;28;20628;-83
2021/10/26 03:00:25;;;;;;;12.00;7.95;;;;;;;;;;4998957;28;20034;-83
2021/10/26 03:02:51;;;;;;;11.38;7.95;;;;;;;;;;4999546;28;20161;-83
2021/10/26 03:05:17;;;;;;;11.77;7.30;;;;;;;;;;5004668;28;20022;-81
2021/10/26 03:07:44;;;;;;;13.25;8.43;;;;;;;;;;5012101;28;20034;-81
2021/10/26 03:10:10;;;;;;;12.63;8.05;;;;;;;;;;5003025;28;20068;-81
2021/10/26 03:12:36;;;;;;;15.75;8.43;;;;;;;;;;4999282;28;20088;-82
2021/10/26 03:15:03;;;;;;;12.85;7.65;;;;;;;;;;4999224;28;20091;-83
2021/10/26 03:17:29;;;;;;;16.35;8.93;;;;;;;;;;4998921;28;20026;-83
2021/10/26 03:19:55;;;;;;;12.63;7.75;;;;;;;;;;4997745;28;20034;-83
2021/10/26 03:22:21;;;;;;;11.80;7.65;;;;;;;;;;4997545;28;20395;-82
2021/10/26 03:24:47;;;;;;;11.27;7.63;;;;;;;;;;4998519;28;20084;-81
2021/10/26 03:27:13;;;;;;;13.18;7.68;;;;;;;;;;4999553;28;20049;-83
2021/10/26 03:29:40;;;;;;;10.05;6.93;;;;;;;;;;4998245;28;20023;-82
2021/10/26 03:32:06;;;;;;;11.82;6.80;;;;;;;;;;4999280;28;20796;-83
2021/10/26 03:34:32;;;;;;;14.00;7.85;;;;;;;;;;4997751;28;20130;-82
2021/10/26 03:36:58;;;;;;;11.98;8.48;;;;;;;;;;4999064;28;20027;-82
2021/10/26 03:39:24;;;;;;;11.32;7.38;;;;;;;;;;4998122;28;20034;-83
2021/10/26 03:41:50;;;;;;;10.82;7.38;;;;;;;;;;4998964;28;20034;-83
2021/10/26 03:44:16;;;;;;;12.75;7.45;;;;;;;;;;4998687;28;20041;-83
2021/10/26 03:46:42;;;;;;;10.82;7.25;;;;;;;;;;4998167;28;20086;-83
2021/10/26 03:49:09;;;;;;;8.45;6.82;;;;;;;;;;4998624;28;20030;-82
2021/10/26 03:51:35;;;;;;;15.40;7.70;;;;;;;;;;4999821;28;20022;-82
2021/10/26 03:54:01;;;;;;;12.32;7.53;;;;;;;;;;5000905;28;20395;-82
2021/10/26 03:56:27;;;;;;;12.68;6.65;;;;;;;;;;4999360;28;20034;-83
2021/10/26 03:58:55;;;;;;;13.55;8.10;;;;;;;;;;5000991;28;20033;-83
2021/10/26 04:01:21;;;;;;;14.85;7.20;;;;;;;;;;5009873;28;20034;-81
2021/10/26 04:03:47;;;;;;;12.65;7.40;;;;;;;;;;5010754;28;20044;-83
2021/10/26 04:06:15;;;;;;;13.52;7.72;;;;;;;;;;5000994;28;20105;-83
2021/10/26 04:13:39;;;;;;;12.02;7.20;;;;;;;;;;5011524;28;20042;-81
2021/10/26 04:16:06;;;;;;;11.75;7.28;;;;;;;;;;5002219;28;20050;-83
2021/10/26 04:18:32;;;;;;;11.35;6.82;;;;;;;;;;4997641;28;20089;-81
2021/10/26 04:20:58;;;;;;;14.52;7.97;;;;;;;;;;5000284;28;20033;-80
2021/10/26 04:23:25;;;;;;;12.80;7.72;;;;;;;;;;4999482;28;20057;-81
2021/10/26 04:25:51;;;;;;;12.93;7.43;;;;;;;;;;4998349;28;20029;-82
2021/10/26 04:28:17;;;;;;;11.75;6.45;;;;;;;;;;4998869;28;20029;-82
2021/10/26 04:30:44;;;;;;;12.55;6.20;;;;;;;;;;4998576;28;20025;-82
2021/10/26 04:33:11;;;;;;;10.80;7.25;;;;;;;;;;4999784;28;20033;-82
2021/10/26 04:35:37;;;;;;;12.75;6.47;;;;;;;;;;5006076;28;20022;-81
2021/10/26 04:38:04;;;;;;;10.70;6.53;;;;;;;;;;5013005;28;20026;-80
2021/10/26 04:40:31;;;;;;;20.27;7.28;;;;;;;;;;5007283;28;20129;-82
2021/10/26 04:42:57;;;;;;;12.98;6.63;;;;;;;;;;4998065;28;20368;-82
2021/10/26 04:45:23;;;;;;;10.30;6.60;;;;;;;;;;4997951;28;20022;-84
2021/10/26 04:47:50;;;;;;;11.95;6.22;;;;;;;;;;4997828;28;20494;-84
2021/10/26 04:50:17;;;;;;;9.13;6.38;;;;;;;;;;4996830;28;20147;-84
2021/10/26 04:52:43;;;;;;;11.80;7.15;;;;;;;;;;4998445;28;20041;-83
2021/10/26 04:55:09;;;;;;;8.10;6.22;;;;;;;;;;4999547;28;20112;-84
2021/10/26 04:57:35;;;;;;;9.43;7.13;;;;;;;;;;4997414;28;20031;-84
2021/10/26 05:00:02;;;;;;;9.75;7.18;;;;;;;;;;4997579;28;20042;-83
2021/10/26 05:02:28;;;;;;;11.27;7.38;;;;;;;;;;4996764;28;20022;-84
2021/10/26 05:04:54;;;;;;;12.90;7.10;;;;;;;;;;4996159;28;20038;-81
2021/10/26 05:07:20;;;;;;;13.20;7.47;;;;;;;;;;4995881;28;20475;-84
2021/10/26 05:09:46;;;;;;;11.68;7.65;;;;;;;;;;4994990;28;20034;-82
2021/10/26 05:12:12;;;;;;;12.30;7.38;;;;;;;;;;4993653;28;20033;-82
2021/10/26 05:14:39;;;;;;;11.95;7.35;;;;;;;;;;4995025;28;20479;-81
2021/10/26 05:17:06;;;;;;;11.85;8.02;;;;;;;;;;4994215;28;20495;-82
2021/10/26 05:19:34;;;;;;;11.02;8.07;;;;;;;;;;4977792;28;20069;-81
2021/10/26 05:22:00;;;;;;;13.55;7.53;;;;;;;;;;4995615;28;20026;-82
2021/10/26 05:24:30;;;;;;;12.77;7.88;;;;;;;;;;4994046;28;20019;-81
2021/10/26 05:26:56;;;;;;;15.23;8.45;;;;;;;;;;4996906;28;20665;-82
2021/10/26 05:29:22;;;;;;;12.27;8.38;;;;;;;;;;4994470;28;20033;-82
2021/10/26 05:31:48;;;;;;;13.55;9.50;;;;;;;;;;4997153;28;20081;-81
2021/10/26 05:34:14;;;;;;;16.05;9.77;;;;;;;;;;4997403;28;20022;-82
2021/10/26 05:36:40;;;;;;;13.95;9.27;;;;;;;;;;4995032;28;20034;-80
2021/10/26 05:39:08;;;;;;;14.10;9.55;;;;;;;;;;4994504;28;20137;-79
2021/10/26 05:41:35;;;;;;;13.55;9.23;;;;;;;;;;4994837;28;20033;-80
2021/10/26 05:44:01;;;;;;;13.25;9.43;;;;;;;;;;4994475;28;20027;-79
2021/10/26 05:46:27;;;;;;;15.50;9.18;;;;;;;;;;4994969;28;20041;-79
2021/10/26 05:48:53;;;;;;;13.07;9.38;;;;;;;;;;4994023;28;20492;-78
2021/10/26 05:51:19;;;;;;;13.52;9.27;;;;;;;;;;4994166;28;20031;-80
2021/10/26 05:53:45;;;;;;;14.88;9.93;;;;;;;;;;4994796;28;20387;-80
2021/10/26 05:56:11;;;;;;;14.93;10.52;;;;;;;;;;4994589;28;20088;-80
2021/10/26 05:58:37;;;;;;;14.27;10.00;;;;;;;;;;4993489;28;20038;-80
2021/10/26 06:01:03;;;;;;;16.17;9.90;;;;;;;;;;4980486;28;20035;-80
2021/10/26 06:03:29;;;;;;;14.55;10.65;;;;;;;;;;4992239;28;20061;-79
2021/10/26 06:05:55;;;;;;;15.52;10.73;;;;;;;;;;4995144;28;20053;-80
2021/10/26 06:08:21;;;;;;;18.73;12.25;;;;;;;;;;4997518;28;20031;-80
2021/10/26 06:10:52;;;;;;;19.42;12.35;;;;;;;;;;4997667;28;20032;-81
2021/10/26 06:13:24;;;;;;;17.67;11.68;;;;;;;;;;4984225;28;20026;-82
2021/10/26 06:15:51;;;;;;;16.88;10.82;;;;;;;;;;5020839;28;20022;-79
2021/10/26 06:18:17;;;;;;;13.43;10.13;;;;;;;;;;5007301;28;20084;-79
2021/10/26 06:20:43;;;;;;;16.73;10.13;;;;;;;;;;4996424;28;20556;-80
2021/10/26 06:23:09;;;;;;;11.68;9.02;;;;;;;;;;4997009;28;20030;-79
2021/10/26 06:25:35;;;;;;;14.90;10.23;;;;;;;;;;4995173;28;20033;-79
2021/10/26 06:28:01;;;;;;;13.23;10.93;;;;;;;;;;4997009;28;20022;-79
2021/10/26 06:30:27;;;;;;;16.70;11.00;;;;;;;;;;4995905;28;20534;-79
2021/10/26 06:32:53;;;;;;;16.33;11.85;;;;;;;;;;4996796;28;20042;-79
2021/10/26 06:35:19;;;;;;;15.68;10.15;;;;;;;;;;4996689;28;20034;-79
2021/10/26 06:37:45;;;;;;;15.77;9.15;;;;;;;;;;4995988;28;20117;-79
2021/10/26 06:40:12;;;;;;;14.88;9.43;;;;;;;;;;4994861;28;20038;-79
2021/10/26 06:42:39;;;;;;;13.13;8.40;;;;;;;;;;4998092;28;20049;-79
2021/10/26 06:45:05;;;;;;;11.38;8.13;;;;;;;;;;4997110;28;20038;-79
2021/10/26 06:47:31;;;;;;;13.75;8.80;;;;;;;;;;4996677;28;20053;-79
2021/10/26 06:49:57;;;;;;;17.15;9.35;;;;;;;;;;4987589;28;20063;-78
2021/10/26 06:52:23;;;;;;;17.83;9.45;;;;;;;;;;4978515;28;20049;-79
2021/10/26 06:54:50;;;;;;;12.60;8.93;;;;;;;;;;4978168;28;20027;-79
2021/10/26 06:57:19;;;;;;;10.95;7.68;;;;;;;;;;4983171;28;20413;-80
2021/10/26 06:59:45;;;;;;;14.13;8.30;;;;;;;;;;5008562;28;20034;-81
2021/10/26 07:02:11;;;;;;;14.35;8.73;;;;;;;;;;5000415;28;20046;-80
2021/10/26 07:04:37;;;;;;;14.13;8.38;;;;;;;;;;4998019;28;20379;-80
2021/10/26 07:07:03;;;;;;;12.88;8.70;;;;;;;;;;4994492;28;20035;-79
2021/10/26 07:09:29;;;;;;;12.20;7.85;;;;;;;;;;4976642;28;20109;-80
2021/10/26 07:11:56;;;;;;;13.07;8.60;;;;;;;;;;4976312;28;20035;-79
2021/10/26 07:14:22;;;;;;;15.57;7.75;;;;;;;;;;4977192;28;20051;-79
2021/10/26 07:16:48;;;;;;;13.73;7.57;;;;;;;;;;4976868;28;20078;-80
2021/10/26 07:19:14;;;;;;;12.23;7.90;;;;;;;;;;4975329;28;20484;-79
2021/10/26 07:21:41;;;;;;;13.95;8.63;;;;;;;;;;4976459;28;20035;-80
2021/10/26 07:24:08;;;;;;;11.80;7.88;;;;;;;;;;4975445;28;20078;-80
2021/10/26 07:26:35;;;;;;;14.57;8.07;;;;;;;;;;4975800;28;20022;-78
2021/10/26 07:29:01;;;;;;;12.70;8.40;;;;;;;;;;4977406;28;20085;-80
2021/10/26 07:31:27;;;;;;;14.15;8.10;;;;;;;;;;4975594;28;20031;-80
2021/10/26 07:33:57;;;;;;;10.63;7.90;;;;;;;;;;4976992;28;20034;-80
2021/10/26 07:36:27;;;;;;;14.23;8.25;;;;;;;;;;4977544;28;20053;-79
2021/10/26 07:39:07;;;;;;;13.45;8.13;;;;;;;;;;4992109;28;20037;-81
2021/10/26 07:41:33;;;;;;;11.80;8.00;;;;;;;;;;4998084;28;20468;-80
2021/10/26 07:44:00;;;;;;;13.38;7.68;;;;;;;;;;4998224;28;20027;-81
2021/10/26 07:46:26;;;;;;;18.70;8.40;;;;;;;;;;4994928;28;20023;-80
2021/10/26 07:48:52;;;;;;;13.43;8.57;;;;;;;;;;4978801;28;20046;-80
2021/10/26 07:51:18;;;;;;;15.88;7.57;;;;;;;;;;4994184;28;20026;-80
2021/10/26 07:53:44;;;;;;;13.90;8.57;;;;;;;;;;4996026;28;20037;-80
2021/10/26 07:56:10;;;;;;;10.80;7.88;;;;;;;;;;4995886;28;20614;-81
2021/10/26 07:58:39;;;;;;;13.13;8.50;;;;;;;;;;4996092;28;20034;-81
2021/10/26 08:01:05;;;;;;;10.98;7.80;;;;;;;;;;4995681;28;20098;-82
2021/10/26 08:03:33;;;;;;;10.73;7.50;;;;;;;;;;4996002;28;20030;-80
2021/10/26 08:05:59;;;;;;;15.55;7.72;;;;;;;;;;4994247;28;20030;-81
2021/10/26 08:08:25;;;;;;;14.05;7.57;;;;;;;;;;4996480;28;20054;-81
2021/10/26 08:10:52;;;;;;;11.52;6.88;;;;;;;;;;4997116;28;20470;-80
2021/10/26 08:13:18;;;;;;;10.07;7.03;;;;;;;;;;5007765;28;20080;-79
2021/10/26 08:15:44;;;;;;;13.60;6.95;;;;;;;;;;5009796;28;20037;-80
2021/10/26 08:18:10;;;;;;;10.95;6.82;;;;;;;;;;5002986;28;20038;-80
2021/10/26 08:20:36;;;;;;;10.93;7.82;;;;;;;;;;5004042;28;20038;-80
2021/10/26 08:23:02;;;;;;;10.65;7.10;;;;;;;;;;5004219;28;20034;-80
2021/10/26 08:25:33;;;;;;;15.35;7.55;;;;;;;;;;5001238;28;20030;-80
2021/10/26 08:28:00;;;;;;;13.40;7.70;;;;;;;;;;4996153;28;20037;-81
2021/10/26 08:30:37;;;;;;;11.60;6.60;;;;;;;;;;4995488;28;20030;-81
2021/10/26 08:34:04;;;;;;;10.50;5.80;;;;;;;;;;4994596;28;20068;-81
2021/10/26 08:35:50;;;;;;;10.45;6.35;;;;;;;;;;4994340;28;20410;-82
2021/10/26 08:38:17;;;;;;;10.05;5.72;;;;;;;;;;4995042;28;20022;-80
2021/10/26 08:40:47;;;;;;;10.40;6.35;;;;;;;;;;4993632;28;20506;-80
2021/10/26 08:43:13;;;;;;;9.32;5.40;;;;;;;;;;4993276;28;20045;-81
2021/10/26 08:45:42;;;;;;;8.45;5.15;;;;;;;;;;4994481;28;20058;-82
2021/10/26 08:48:11;;;;;;;11.40;5.95;;;;;;;;;;4992401;28;20030;-81
2021/10/26 08:50:37;;;;;;;10.25;5.65;;;;;;;;;;4974416;28;20033;-80
2021/10/26 08:53:04;;;;;;;14.27;6.75;;;;;;;;;;4975778;28;20031;-81
2021/10/26 08:55:34;;;;;;;9.73;5.93;;;;;;;;;;4975441;28;20424;-81
2021/10/26 08:58:04;;;;;;;11.48;6.57;;;;;;;;;;4972112;28;20101;-82
2021/10/26 09:00:30;;;;;;;10.48;5.65;;;;;;;;;;4977984;28;20018;-82
2021/10/26 09:02:56;;;;;;;9.55;6.13;;;;;;;;;;4994114;28;20126;-81
2021/10/26 09:05:23;;;;;;;10.02;5.40;;;;;;;;;;4995358;28;20031;-83
2021/10/26 09:08:10;;;;;;;10.13;6.07;;;;;;;;;;4996081;28;20075;-83
2021/10/26 09:10:37;;;;;;;10.23;6.80;;;;;;;;;;4995065;28;20061;-84
2021/10/26 09:18:37;;;;;;;9.43;6.43;;;;;;;;;;4996807;28;20052;-83
2021/10/26 09:21:03;;;;;;;13.38;7.68;;;;;;;;;;4996669;28;20039;-84
2021/10/26 09:23:29;;;;;;;17.00;9.10;;;;;;;;;;4998185;28;20443;-83
2021/10/26 09:25:59;;;;;;;10.27;7.53;;;;;;;;;;4995505;28;20046;-84
2021/10/26 09:28:26;;;;;;;13.40;7.50;;;;;;;;;;4997476;28;20034;-84
2021/10/26 09:30:59;;;;;;;10.95;7.93;;;;;;;;;;4996182;28;20033;-84
2021/10/26 09:33:35;;;;;;;17.00;9.55;;;;;;;;;;4997335;28;20038;-83
2021/10/26 09:36:21;;;;;;;20.35;9.35;;;;;;;;;;4997869;28;20392;-84
2021/10/26 09:38:47;;;;;;;14.23;9.88;;;;;;;;;;4999397;28;20483;-83
2021/10/26 09:41:13;;;;;;;10.35;7.55;;;;;;;;;;4999939;28;20090;-83
2021/10/26 09:43:40;;;;;;;12.18;7.05;;;;;;;;;;4997910;28;20037;-83
2021/10/26 09:46:06;;;;;;;11.52;6.97;;;;;;;;;;4997296;28;20030;-84
2021/10/26 09:48:34;;;;;;;10.75;6.53;;;;;;;;;;4997656;28;20030;-83
2021/10/26 09:51:09;;;;;;;13.85;6.03;;;;;;;;;;4996409;28;20026;-83
2021/10/26 09:53:36;;;;;;;12.20;5.72;;;;;;;;;;4996381;28;20030;-83
2021/10/26 09:56:03;;;;;;;9.77;5.65;;;;;;;;;;4997667;28;20026;-84
2021/10/26 09:58:30;;;;;;;9.65;4.82;;;;;;;;;;4979953;28;20037;-84
2021/10/26 10:01:10;;;;;;;8.63;4.88;;;;;;;;;;4995152;28;20090;-83
2021/10/26 10:03:36;;;;;;;9.10;4.88;;;;;;;;;;4999835;28;20031;-84
2021/10/26 10:06:09;;;;;;;9.63;4.90;;;;;;;;;;5001461;28;20089;-86
2021/10/26 10:08:35;;;;;;;;;;;;;;;;;;5017846;28;20011;-86
2021/10/26 10:11:14;;;;;;;6.75;4.13;;;;;;;;;;5017293;28;19905;-87
2021/10/26 10:13:41;;;;;;;8.02;4.47;;;;;;;;;;5001979;28;20030;-87
2021/10/26 10:16:11;;;;;;;9.43;4.43;;;;;;;;;;4994481;28;20039;-87
2021/10/26 10:18:37;;;;;;;9.32;4.20;;;;;;;;;;4995998;28;20034;-85
2021/10/26 10:21:04;;;;;;;6.75;4.70;;;;;;;;;;4998318;28;20046;-86
2021/10/26 10:23:30;;;;;;;8.32;4.00;;;;;;;;;;4995185;28;20054;-85
2021/10/26 10:25:59;;;;;;;9.63;4.85;;;;;;;;;;4994940;28;20032;-86
2021/10/26 10:28:29;;;;;;;9.88;4.20;;;;;;;;;;5001897;28;20026;-86
2021/10/26 10:30:58;;;;;;;7.88;4.10;;;;;;;;;;4987542;28;20030;-75
2021/10/26 10:33:24;;;;;;;7.43;4.00;;;;;;;;;;4994797;28;20522;-81
2021/10/26 10:35:54;;;;;;;7.65;4.68;;;;;;;;;;4996314;28;20145;-85
2021/10/26 10:38:23;;;;;;;8.75;4.25;;;;;;;;;;4996977;28;20050;-85
2021/10/26 10:40:49;;;;;;;8.20;4.57;;;;;;;;;;5001234;28;20048;-84
2021/10/26 10:43:33;;;;;;;7.97;4.47;;;;;;;;;;4984724;28;20054;-84
2021/10/26 10:45:59;;;;;;;7.10;4.15;;;;;;;;;;5000340;28;20066;-85
2021/10/26 10:48:30;;;;;;;7.63;3.83;;;;;;;;;;4997436;28;20022;-83
2021/10/26 10:51:09;;;;;;;6.43;3.80;;;;;;;;;;4996046;28;20550;-84
2021/10/26 10:53:36;;;;;;;5.97;3.53;;;;;;;;;;4997951;28;20132;-84
2021/10/26 10:56:20;;;;;;;5.15;3.58;;;;;;;;;;4999125;28;20045;-85
2021/10/26 10:58:47;;;;;;;8.88;3.10;;;;;;;;;;4999668;28;20045;-85
2021/10/26 11:01:21;;;;;;;7.45;3.40;;;;;;;;;;4999013;28;20509;-83
2021/10/26 11:03:47;;;;;;;7.55;3.50;;;;;;;;;;5000316;28;20034;-85
2021/10/26 11:06:32;;;;;;;7.75;3.20;;;;;;;;;;5002270;28;20106;-83
2021/10/26 11:08:58;;;;;;;8.82;3.38;;;;;;;;;;5003399;28;20026;-83
2021/10/26 11:11:24;;;;;;;7.03;3.60;;;;;;;;;;5000954;28;20030;-83
2021/10/26 11:14:10;;;;;;;6.95;3.78;;;;;;;;;;5001020;28;20398;-83
2021/10/26 11:16:37;;;;;;;6.03;3.10;;;;;;;;;;5003261;28;20068;-85
2021/10/26 11:19:03;;;;;;;8.18;2.97;;;;;;;;;;5000215;28;20072;-85
2021/10/26 11:21:38;;;;;;;7.82;3.20;;;;;;;;;;5000845;28;20097;-85
2021/10/26 11:24:06;;;;;;;5.63;2.85;;;;;;;;;;5002286;28;20029;-85
2021/10/26 11:26:38;;;;;;;5.85;3.03;;;;;;;;;;5002081;28;20037;-84
2021/10/26 11:29:06;;;;;;;6.57;3.03;;;;;;;;;;5004146;28;20510;-85
2021/10/26 11:31:41;;;;;;;5.28;2.90;;;;;;;;;;5001273;28;20494;-84
2021/10/26 11:34:09;;;;;;;8.77;3.17;;;;;;;;;;5000624;28;20023;-85
2021/10/26 11:36:37;;;;;;;6.43;2.90;;;;;;;;;;4999886;28;20030;-85
2021/10/26 11:39:05;;;;;;;6.15;2.75;;;;;;;;;;5001034;28;20038;-83
2021/10/26 11:41:32;;;;;;;4.88;2.83;;;;;;;;;;4999890;28;20030;-84
2021/10/26 11:43:59;;;;;;;7.82;3.03;;;;;;;;;;4999864;28;20030;-81
2021/10/26 11:46:25;;;;;;;7.13;3.28;;;;;;;;;;5003064;28;20054;-81
2021/10/26 11:48:52;;;;;;;6.00;2.95;;;;;;;;;;5008728;28;20065;-81
2021/10/26 11:51:21;;;;;;;8.13;3.60;;;;;;;;;;5004397;28;20208;-81
2021/10/26 11:53:48;;;;;;;6.00;3.00;;;;;;;;;;4996154;28;20093;-82
2021/10/26 11:56:21;;;;;;;5.32;2.50;;;;;;;;;;4996685;28;20062;-82
2021/10/26 11:58:58;;;;;;;7.65;2.88;;;;;;;;;;4996467;28;20061;-82
2021/10/26 12:01:33;;;;;;;7.13;2.63;;;;;;;;;;4996030;28;20034;-81
2021/10/26 12:04:00;;;;;;;5.03;2.60;;;;;;;;;;4996971;28;20395;-81
2021/10/26 12:06:29;;;;;;;7.70;2.97;;;;;;;;;;4996830;28;20058;-81
2021/10/26 12:09:00;;;;;;;6.72;2.78;;;;;;;;;;4996600;28;20047;-81
2021/10/26 12:11:35;;;;;;;6.68;2.80;;;;;;;;;;4994275;28;20022;-81
2021/10/26 12:14:11;;;;;;;6.53;2.53;;;;;;;;;;4996475;28;20145;-79
2021/10/26 12:16:37;;;;;;;5.40;2.13;;;;;;;;;;5000410;28;20030;-79
2021/10/26 12:19:03;;;;;;;4.07;2.17;;;;;;;;;;4997943;28;20053;-80
2021/10/26 12:21:30;;;;;;;6.07;2.78;;;;;;;;;;4997764;28;20022;-79
2021/10/26 12:23:56;;;;;;;8.75;2.30;;;;;;;;;;5001809;28;20130;-80
2021/10/26 12:26:22;;;;;;;8.52;2.58;;;;;;;;;;4999680;28;20036;-78
2021/10/26 12:28:58;;;;;;;5.72;2.25;;;;;;;;;;4979695;28;20146;-79
2021/10/26 12:31:25;;;;;;;8.13;2.60;;;;;;;;;;4994921;28;20050;-80
2021/10/26 12:34:00;;;;;;;4.60;2.50;;;;;;;;;;4996526;28;20023;-80
2021/10/26 12:36:27;;;;;;;5.05;2.45;;;;;;;;;;4994050;28;20108;-81
2021/10/26 12:39:01;;;;;;;5.13;2.35;;;;;;;;;;4995669;28;20030;-81
2021/10/26 12:41:36;;;;;;;4.57;2.38;;;;;;;;;;4995825;28;20080;-80
2021/10/26 12:44:04;;;;;;;4.57;2.08;;;;;;;;;;4996358;28;20097;-81
2021/10/26 12:46:30;;;;;;;5.38;2.25;;;;;;;;;;4996243;28;20037;-81
2021/10/26 12:49:10;;;;;;;4.85;2.25;;;;;;;;;;4996583;28;20019;-80
2021/10/26 12:51:37;;;;;;;5.45;2.22;;;;;;;;;;4999075;28;20506;-81
2021/10/26 12:54:13;;;;;;;4.85;2.28;;;;;;;;;;4997137;28;20404;-81
2021/10/26 12:56:47;;;;;;;4.97;2.22;;;;;;;;;;4996478;28;20583;-80
2021/10/26 12:59:18;;;;;;;4.32;2.33;;;;;;;;;;4996024;28;20026;-81
2021/10/26 13:01:47;;;;;;;5.47;1.95;;;;;;;;;;4994580;28;20076;-80
2021/10/26 13:04:23;;;;;;;4.13;2.17;;;;;;;;;;4995412;28;20065;-79
2021/10/26 13:06:49;;;;;;;6.13;2.55;;;;;;;;;;4996634;28;20033;-79
2021/10/26 13:09:21;;;;;;;7.15;3.15;;;;;;;;;;4994933;28;20022;-80
2021/10/26 13:11:47;;;;;;;3.78;2.00;;;;;;;;;;4993303;28;20672;-77
2021/10/26 13:14:14;;;;;;;7.75;2.58;;;;;;;;;;4991858;28;20030;-77
2021/10/26 13:16:48;;;;;;;6.95;2.75;;;;;;;;;;4992427;28;20398;-77
2021/10/26 13:19:14;;;;;;;4.30;2.28;;;;;;;;;;4991532;28;20080;-77
2021/10/26 13:21:40;;;;;;;6.20;3.10;;;;;;;;;;4992421;28;20034;-77
2021/10/26 13:24:06;;;;;;;4.53;2.80;;;;;;;;;;4993245;28;20030;-77
2021/10/26 13:26:33;;;;;;;4.47;2.50;;;;;;;;;;4991798;28;20096;-77
2021/10/26 13:29:00;;;;;;;6.80;3.15;;;;;;;;;;4993294;28;20034;-78
2021/10/26 13:31:26;;;;;;;5.85;2.20;;;;;;;;;;4992843;28;20164;-78
2021/10/26 13:33:52;;;;;;;7.55;2.50;;;;;;;;;;4998321;28;20387;-78
2021/10/26 13:36:19;;;;;;;5.68;2.50;;;;;;;;;;4996170;28;20022;-78
2021/10/26 13:38:45;;;;;;;4.85;2.55;;;;;;;;;;4994579;28;20045;-78
2021/10/26 13:41:14;;;;;;;4.10;2.20;;;;;;;;;;4994983;28;20109;-78
2021/10/26 13:43:44;;;;;;;5.18;2.35;;;;;;;;;;4995676;28;20080;-78
2021/10/26 13:46:12;;;;;;;3.22;1.80;;;;;;;;;;4995449;28;20030;-78
2021/10/26 13:48:38;;;;;;;5.30;2.10;;;;;;;;;;4995322;28;20026;-78
2021/10/26 13:51:06;;;;;;;5.55;2.45;;;;;;;;;;4995730;28;20085;-78
2021/10/26 13:53:32;;;;;;;5.25;1.98;;;;;;;;;;5005922;28;20026;-78
2021/10/26 13:55:59;;;;;;;5.72;1.73;;;;;;;;;;5014716;28;20041;-77
2021/10/26 13:58:25;;;;;;;4.70;1.88;;;;;;;;;;5012755;28;20029;-78
2021/10/26 14:00:53;;;;;;;4.70;1.75;;;;;;;;;;4995279;28;20031;-77
2021/10/26 14:03:20;;;;;;;4.85;2.20;;;;;;;;;;4993600;28;20049;-79
2021/10/26 14:05:46;;;;;;;4.95;1.65;;;;;;;;;;4994787;28;20062;-78
2021/10/26 14:08:12;;;;;;;3.60;1.70;;;;;;;;;;4992549;28;20419;-78
2021/10/26 14:10:39;;;;;;;3.63;1.75;;;;;;;;;;4992778;28;20022;-78
2021/10/26 14:13:05;;;;;;;4.05;1.80;;;;;;;;;;4997242;28;20118;-78
2021/10/26 14:15:32;;;;;;;5.57;1.67;;;;;;;;;;4995752;28;20038;-78
2021/10/26 14:17:59;;;;;;;4.68;1.58;;;;;;;;;;4998797;28;20031;-78
2021/10/26 14:20:27;;;;;;;5.05;1.50;;;;;;;;;;5002013;28;20712;-77
2021/10/26 14:22:53;;;;;;;4.40;1.40;;;;;;;;;;4996619;28;20411;-78
2021/10/26 14:25:21;;;;;;;1.98;0.98;;;;;;;;;;4994815;28;20026;-79
2021/10/26 14:27:49;;;;;;;2.95;1.08;;;;;;;;;;4998046;28;20507;-78
2021/10/26 14:30:16;;;;;;;1.45;1.00;;;;;;;;;;4999248;28;20062;-78
2021/10/26 14:32:49;;;;;;;1.40;0.68;;;;;;;;;;5013575;28;20030;-77
2021/10/26 14:35:16;;;;;;;1.73;0.70;;;;;;;;;;4999100;28;20022;-77
2021/10/26 14:38:01;;;;;;;1.20;0.70;;;;;;;;;;4999303;28;20036;-77
2021/10/26 14:40:46;;;;;;;1.40;0.88;;;;;;;;;;4997818;28;20466;-78
2021/10/26 14:54:02;;;;;;;2.35;0.70;;;;;;;;;;4998362;28;20137;-78
2021/10/26 14:56:28;;;;;;;1.90;0.80;;;;;;;;;;5000243;28;20031;-78
2021/10/26 14:58:54;;;;;;;1.50;0.80;;;;;;;;;;4998720;28;20041;-78
2021/10/26 15:01:20;;;;;;;2.28;0.60;;;;;;;;;;4997579;28;20180;-78